sensor_id;sensor_type;location;lat;lon;timestamp;temperature;humidity
28087;DHT22;15392;48.912;8.380;2024-02-28T00:02:32;13.90;49.50
28087;DHT22;15392;48.912;8.380;2024-02-28T00:05:18;13.90;49.50
28087;DHT22;15392;48.912;8.380;2024-02-28T00:08:04;13.90;49.50
28087;DHT22;15392;48.912;8.380;2024-02-28T00:10:50;13.80;49.50
28087;DHT22;15392;48.912;8.380;2024-02-28T00:13:36;13.80;49.50
28087;DHT22;15392;48.912;8.380;2024-02-28T00:16:22;13.80;49.60
28087;DHT22;15392;48.912;8.380;2024-02-28T00:19:09;13.80;49.60
28087;DHT22;15392;48.912;8.380;2024-02-28T00:21:57;13.80;49.60
28087;DHT22;15392;48.912;8.380;2024-02-28T00:24:45;13.70;50.20
28087;DHT22;15392;48.912;8.380;2024-02-28T00:27:32;13.70;49.60
28087;DHT22;15392;48.912;8.380;2024-02-28T00:30:19;13.70;49.60
28087;DHT22;15392;48.912;8.380;2024-02-28T00:33:05;13.60;49.60
28087;DHT22;15392;48.912;8.380;2024-02-28T00:35:51;13.60;49.60
28087;DHT22;15392;48.912;8.380;2024-02-28T00:38:39;13.60;49.70
28087;DHT22;15392;48.912;8.380;2024-02-28T00:41:25;13.50;49.60
28087;DHT22;15392;48.912;8.380;2024-02-28T00:44:11;13.50;49.60
28087;DHT22;15392;48.912;8.380;2024-02-28T00:46:57;13.40;49.60
28087;DHT22;15392;48.912;8.380;2024-02-28T00:49:43;13.40;49.70
28087;DHT22;15392;48.912;8.380;2024-02-28T00:52:29;13.40;49.70
28087;DHT22;15392;48.912;8.380;2024-02-28T00:55:17;13.40;49.70
28087;DHT22;15392;48.912;8.380;2024-02-28T00:58:04;13.40;49.70
28087;DHT22;15392;48.912;8.380;2024-02-28T01:00:50;13.30;49.70
28087;DHT22;15392;48.912;8.380;2024-02-28T01:03:36;13.30;49.70
28087;DHT22;15392;48.912;8.380;2024-02-28T01:06:22;13.30;49.70
28087;DHT22;15392;48.912;8.380;2024-02-28T01:09:08;13.30;49.70
28087;DHT22;15392;48.912;8.380;2024-02-28T01:11:54;13.30;49.80
28087;DHT22;15392;48.912;8.380;2024-02-28T01:14:40;13.20;49.70
28087;DHT22;15392;48.912;8.380;2024-02-28T01:17:26;13.20;49.70
28087;DHT22;15392;48.912;8.380;2024-02-28T01:20:13;13.20;49.80
28087;DHT22;15392;48.912;8.380;2024-02-28T01:22:59;13.20;49.80
28087;DHT22;15392;48.912;8.380;2024-02-28T01:25:45;13.10;49.80
28087;DHT22;15392;48.912;8.380;2024-02-28T01:28:31;13.10;49.70
28087;DHT22;15392;48.912;8.380;2024-02-28T01:31:17;13.10;49.60
28087;DHT22;15392;48.912;8.380;2024-02-28T01:34:03;13.00;49.50
28087;DHT22;15392;48.912;8.380;2024-02-28T01:36:49;13.00;49.50
28087;DHT22;15392;48.912;8.380;2024-02-28T01:39:35;12.90;49.40
28087;DHT22;15392;48.912;8.380;2024-02-28T01:42:21;12.90;49.40
28087;DHT22;15392;48.912;8.380;2024-02-28T01:45:10;12.80;49.40
28087;DHT22;15392;48.912;8.380;2024-02-28T01:47:59;12.70;49.50
28087;DHT22;15392;48.912;8.380;2024-02-28T01:50:46;12.70;49.60
28087;DHT22;15392;48.912;8.380;2024-02-28T01:53:32;12.60;49.60
28087;DHT22;15392;48.912;8.380;2024-02-28T01:56:19;12.60;49.80
28087;DHT22;15392;48.912;8.380;2024-02-28T01:59:07;12.50;49.80
28087;DHT22;15392;48.912;8.380;2024-02-28T02:01:55;12.50;49.90
28087;DHT22;15392;48.912;8.380;2024-02-28T02:04:41;12.50;49.90
28087;DHT22;15392;48.912;8.380;2024-02-28T02:07:27;12.40;49.80
28087;DHT22;15392;48.912;8.380;2024-02-28T02:10:14;12.40;49.70
28087;DHT22;15392;48.912;8.380;2024-02-28T02:13:06;12.40;49.70
28087;DHT22;15392;48.912;8.380;2024-02-28T02:15:53;12.30;49.60
28087;DHT22;15392;48.912;8.380;2024-02-28T02:18:39;12.20;49.50
28087;DHT22;15392;48.912;8.380;2024-02-28T02:21:30;12.20;49.60
28087;DHT22;15392;48.912;8.380;2024-02-28T02:24:20;12.10;49.60
28087;DHT22;15392;48.912;8.380;2024-02-28T02:27:06;12.00;49.60
28087;DHT22;15392;48.912;8.380;2024-02-28T02:29:52;11.90;49.60
28087;DHT22;15392;48.912;8.380;2024-02-28T02:32:38;11.90;49.70
28087;DHT22;15392;48.912;8.380;2024-02-28T02:35:24;11.70;49.70
28087;DHT22;15392;48.912;8.380;2024-02-28T02:38:10;11.70;49.70
28087;DHT22;15392;48.912;8.380;2024-02-28T02:40:56;11.60;49.80
28087;DHT22;15392;48.912;8.380;2024-02-28T02:43:42;11.50;49.80
28087;DHT22;15392;48.912;8.380;2024-02-28T02:46:28;11.40;49.80
28087;DHT22;15392;48.912;8.380;2024-02-28T02:49:14;11.30;49.90
28087;DHT22;15392;48.912;8.380;2024-02-28T02:52:01;11.30;50.00
28087;DHT22;15392;48.912;8.380;2024-02-28T02:54:47;11.20;50.10
28087;DHT22;15392;48.912;8.380;2024-02-28T02:57:33;11.20;50.30
28087;DHT22;15392;48.912;8.380;2024-02-28T03:00:19;11.10;50.40
28087;DHT22;15392;48.912;8.380;2024-02-28T03:03:05;11.00;50.60
28087;DHT22;15392;48.912;8.380;2024-02-28T03:05:51;11.00;50.60
28087;DHT22;15392;48.912;8.380;2024-02-28T03:08:37;11.00;50.60
28087;DHT22;15392;48.912;8.380;2024-02-28T03:11:23;10.90;50.80
28087;DHT22;15392;48.912;8.380;2024-02-28T03:14:10;10.90;50.90
28087;DHT22;15392;48.912;8.380;2024-02-28T03:16:56;10.80;50.90
28087;DHT22;15392;48.912;8.380;2024-02-28T03:19:42;10.80;51.00
28087;DHT22;15392;48.912;8.380;2024-02-28T03:22:28;10.80;51.00
28087;DHT22;15392;48.912;8.380;2024-02-28T03:25:14;10.80;51.20
28087;DHT22;15392;48.912;8.380;2024-02-28T03:28:00;10.80;51.30
28087;DHT22;15392;48.912;8.380;2024-02-28T03:30:47;10.80;51.30
28087;DHT22;15392;48.912;8.380;2024-02-28T03:33:33;10.80;51.40
28087;DHT22;15392;48.912;8.380;2024-02-28T03:36:21;10.90;51.40
28087;DHT22;15392;48.912;8.380;2024-02-28T03:39:07;10.90;51.40
28087;DHT22;15392;48.912;8.380;2024-02-28T03:41:53;10.90;51.30
28087;DHT22;15392;48.912;8.380;2024-02-28T03:44:39;11.00;51.40
28087;DHT22;15392;48.912;8.380;2024-02-28T03:47:25;11.00;51.40
28087;DHT22;15392;48.912;8.380;2024-02-28T03:50:11;11.00;51.30
28087;DHT22;15392;48.912;8.380;2024-02-28T03:52:57;11.00;51.10
28087;DHT22;15392;48.912;8.380;2024-02-28T03:55:43;11.00;51.20
28087;DHT22;15392;48.912;8.380;2024-02-28T03:58:29;11.10;51.30
28087;DHT22;15392;48.912;8.380;2024-02-28T04:01:16;11.10;51.20
28087;DHT22;15392;48.912;8.380;2024-02-28T04:04:02;11.10;51.20
28087;DHT22;15392;48.912;8.380;2024-02-28T04:06:48;11.10;51.20
28087;DHT22;15392;48.912;8.380;2024-02-28T04:09:34;11.10;51.60
28087;DHT22;15392;48.912;8.380;2024-02-28T04:12:20;11.10;51.00
28087;DHT22;15392;48.912;8.380;2024-02-28T04:15:06;11.20;51.10
28087;DHT22;15392;48.912;8.380;2024-02-28T04:17:52;11.20;51.00
28087;DHT22;15392;48.912;8.380;2024-02-28T04:20:38;11.20;51.10
28087;DHT22;15392;48.912;8.380;2024-02-28T04:23:24;11.20;51.10
28087;DHT22;15392;48.912;8.380;2024-02-28T04:26:10;11.20;51.10
28087;DHT22;15392;48.912;8.380;2024-02-28T04:28:56;11.20;51.10
28087;DHT22;15392;48.912;8.380;2024-02-28T04:31:42;11.30;51.10
28087;DHT22;15392;48.912;8.380;2024-02-28T04:34:28;11.30;51.10
28087;DHT22;15392;48.912;8.380;2024-02-28T04:37:14;11.30;51.10
28087;DHT22;15392;48.912;8.380;2024-02-28T04:40:01;11.30;51.10
28087;DHT22;15392;48.912;8.380;2024-02-28T04:42:48;11.40;51.10
28087;DHT22;15392;48.912;8.380;2024-02-28T04:45:34;11.40;51.00
28087;DHT22;15392;48.912;8.380;2024-02-28T04:48:21;11.40;51.00
28087;DHT22;15392;48.912;8.380;2024-02-28T04:51:07;11.40;51.00
28087;DHT22;15392;48.912;8.380;2024-02-28T04:53:53;11.50;51.00
28087;DHT22;15392;48.912;8.380;2024-02-28T04:56:40;11.50;51.00
28087;DHT22;15392;48.912;8.380;2024-02-28T04:59:27;11.50;51.00
28087;DHT22;15392;48.912;8.380;2024-02-28T05:02:13;11.40;50.90
28087;DHT22;15392;48.912;8.380;2024-02-28T05:04:59;11.50;51.00
28087;DHT22;15392;48.912;8.380;2024-02-28T05:07:45;11.50;50.90
28087;DHT22;15392;48.912;8.380;2024-02-28T05:10:31;11.50;50.90
28087;DHT22;15392;48.912;8.380;2024-02-28T05:13:19;11.50;50.90
28087;DHT22;15392;48.912;8.380;2024-02-28T05:16:14;11.50;50.80
28087;DHT22;15392;48.912;8.380;2024-02-28T05:19:01;11.50;50.90
28087;DHT22;15392;48.912;8.380;2024-02-28T05:21:48;11.50;50.80
28087;DHT22;15392;48.912;8.380;2024-02-28T05:24:34;11.60;50.90
28087;DHT22;15392;48.912;8.380;2024-02-28T05:27:21;11.60;50.80
28087;DHT22;15392;48.912;8.380;2024-02-28T05:30:10;11.60;50.80
28087;DHT22;15392;48.912;8.380;2024-02-28T05:32:56;11.60;50.80
28087;DHT22;15392;48.912;8.380;2024-02-28T05:35:42;11.60;50.80
28087;DHT22;15392;48.912;8.380;2024-02-28T05:38:28;11.60;50.70
28087;DHT22;15392;48.912;8.380;2024-02-28T05:41:16;11.60;50.70
28087;DHT22;15392;48.912;8.380;2024-02-28T05:44:05;11.60;50.70
28087;DHT22;15392;48.912;8.380;2024-02-28T05:46:51;11.60;50.90
28087;DHT22;15392;48.912;8.380;2024-02-28T05:49:37;11.60;50.50
28087;DHT22;15392;48.912;8.380;2024-02-28T05:52:23;11.50;50.50
28087;DHT22;15392;48.912;8.380;2024-02-28T05:55:10;11.50;50.50
28087;DHT22;15392;48.912;8.380;2024-02-28T05:57:56;11.50;50.50
28087;DHT22;15392;48.912;8.380;2024-02-28T06:00:42;11.50;50.50
28087;DHT22;15392;48.912;8.380;2024-02-28T06:03:28;11.50;50.60
28087;DHT22;15392;48.912;8.380;2024-02-28T06:06:15;11.40;50.60
28087;DHT22;15392;48.912;8.380;2024-02-28T06:09:01;11.40;50.50
28087;DHT22;15392;48.912;8.380;2024-02-28T06:11:47;11.40;51.10
28087;DHT22;15392;48.912;8.380;2024-02-28T06:14:33;11.30;50.40
28087;DHT22;15392;48.912;8.380;2024-02-28T06:17:20;11.30;50.40
28087;DHT22;15392;48.912;8.380;2024-02-28T06:20:07;11.20;50.40
28087;DHT22;15392;48.912;8.380;2024-02-28T06:22:54;11.20;50.30
28087;DHT22;15392;48.912;8.380;2024-02-28T06:25:40;11.10;50.20
28087;DHT22;15392;48.912;8.380;2024-02-28T06:28:26;11.00;50.20
28087;DHT22;15392;48.912;8.380;2024-02-28T06:31:14;11.00;50.30
28087;DHT22;15392;48.912;8.380;2024-02-28T06:34:01;10.90;50.30
28087;DHT22;15392;48.912;8.380;2024-02-28T06:36:48;10.90;50.40
28087;DHT22;15392;48.912;8.380;2024-02-28T06:39:34;10.80;50.40
28087;DHT22;15392;48.912;8.380;2024-02-28T06:42:20;10.70;50.40
28087;DHT22;15392;48.912;8.380;2024-02-28T06:45:06;10.60;50.40
28087;DHT22;15392;48.912;8.380;2024-02-28T06:47:54;10.60;50.60
28087;DHT22;15392;48.912;8.380;2024-02-28T06:50:43;10.50;50.60
28087;DHT22;15392;48.912;8.380;2024-02-28T06:53:29;10.50;50.80
28087;DHT22;15392;48.912;8.380;2024-02-28T06:56:15;10.50;50.90
28087;DHT22;15392;48.912;8.380;2024-02-28T06:59:01;10.40;51.00
28087;DHT22;15392;48.912;8.380;2024-02-28T07:01:47;10.40;51.10
28087;DHT22;15392;48.912;8.380;2024-02-28T07:04:33;10.40;51.10
28087;DHT22;15392;48.912;8.380;2024-02-28T07:07:19;10.50;51.20
28087;DHT22;15392;48.912;8.380;2024-02-28T07:10:06;10.40;51.20
28087;DHT22;15392;48.912;8.380;2024-02-28T07:12:52;10.50;51.30
28087;DHT22;15392;48.912;8.380;2024-02-28T07:15:38;10.50;51.40
28087;DHT22;15392;48.912;8.380;2024-02-28T07:18:25;10.50;51.40
28087;DHT22;15392;48.912;8.380;2024-02-28T07:21:14;10.50;51.40
28087;DHT22;15392;48.912;8.380;2024-02-28T07:24:00;10.50;51.30
28087;DHT22;15392;48.912;8.380;2024-02-28T07:26:46;10.50;51.90
28087;DHT22;15392;48.912;8.380;2024-02-28T07:29:32;10.60;51.40
28087;DHT22;15392;48.912;8.380;2024-02-28T07:32:18;10.60;51.40
28087;DHT22;15392;48.912;8.380;2024-02-28T07:35:05;10.60;51.40
28087;DHT22;15392;48.912;8.380;2024-02-28T07:37:51;10.70;51.50
28087;DHT22;15392;48.912;8.380;2024-02-28T07:40:37;10.70;51.50
28087;DHT22;15392;48.912;8.380;2024-02-28T07:43:24;10.70;51.60
28087;DHT22;15392;48.912;8.380;2024-02-28T07:46:10;10.80;51.60
28087;DHT22;15392;48.912;8.380;2024-02-28T07:48:57;10.90;51.60
28087;DHT22;15392;48.912;8.380;2024-02-28T07:51:43;10.90;51.50
28087;DHT22;15392;48.912;8.380;2024-02-28T07:54:29;10.90;51.50
28087;DHT22;15392;48.912;8.380;2024-02-28T07:57:15;11.00;51.40
28087;DHT22;15392;48.912;8.380;2024-02-28T08:00:01;11.00;51.40
28087;DHT22;15392;48.912;8.380;2024-02-28T08:02:47;11.10;51.40
28087;DHT22;15392;48.912;8.380;2024-02-28T08:05:33;11.10;51.40
28087;DHT22;15392;48.912;8.380;2024-02-28T08:08:24;11.10;51.40
28087;DHT22;15392;48.912;8.380;2024-02-28T08:11:10;11.20;51.40
28087;DHT22;15392;48.912;8.380;2024-02-28T08:13:56;11.20;51.40
28087;DHT22;15392;48.912;8.380;2024-02-28T08:16:42;11.40;51.60
28087;DHT22;15392;48.912;8.380;2024-02-28T08:19:29;11.50;51.80
28087;DHT22;15392;48.912;8.380;2024-02-28T08:22:15;11.70;52.00
28087;DHT22;15392;48.912;8.380;2024-02-28T08:25:01;12.00;51.90
28087;DHT22;15392;48.912;8.380;2024-02-28T08:27:47;12.10;51.70
28087;DHT22;15392;48.912;8.380;2024-02-28T08:30:33;12.30;51.20
28087;DHT22;15392;48.912;8.380;2024-02-28T08:33:19;12.40;50.90
28087;DHT22;15392;48.912;8.380;2024-02-28T08:36:06;12.40;51.30
28087;DHT22;15392;48.912;8.380;2024-02-28T08:38:52;12.50;50.70
28087;DHT22;15392;48.912;8.380;2024-02-28T08:41:38;12.70;51.00
28087;DHT22;15392;48.912;8.380;2024-02-28T08:44:24;12.90;51.10
28087;DHT22;15392;48.912;8.380;2024-02-28T08:47:10;13.10;51.40
28087;DHT22;15392;48.912;8.380;2024-02-28T08:49:57;13.50;52.00
28087;DHT22;15392;48.912;8.380;2024-02-28T08:52:43;14.00;52.40
28087;DHT22;15392;48.912;8.380;2024-02-28T08:55:29;14.50;52.50
28087;DHT22;15392;48.912;8.380;2024-02-28T08:58:16;15.10;52.50
28087;DHT22;15392;48.912;8.380;2024-02-28T09:01:03;15.80;52.10
28087;DHT22;15392;48.912;8.380;2024-02-28T09:03:50;16.40;51.70
28087;DHT22;15392;48.912;8.380;2024-02-28T09:06:36;17.00;51.10
28087;DHT22;15392;48.912;8.380;2024-02-28T09:09:22;17.60;50.50
28087;DHT22;15392;48.912;8.380;2024-02-28T09:12:08;18.20;49.70
28087;DHT22;15392;48.912;8.380;2024-02-28T09:14:54;18.80;49.50
28087;DHT22;15392;48.912;8.380;2024-02-28T09:17:43;19.20;49.10
28087;DHT22;15392;48.912;8.380;2024-02-28T09:20:29;19.80;48.60
28087;DHT22;15392;48.912;8.380;2024-02-28T09:23:15;20.20;48.00
28087;DHT22;15392;48.912;8.380;2024-02-28T09:26:05;20.60;47.50
28087;DHT22;15392;48.912;8.380;2024-02-28T09:28:51;21.00;46.50
28087;DHT22;15392;48.912;8.380;2024-02-28T09:31:37;21.20;46.00
28087;DHT22;15392;48.912;8.380;2024-02-28T09:34:23;21.20;45.20
28087;DHT22;15392;48.912;8.380;2024-02-28T09:37:09;21.20;44.80
28087;DHT22;15392;48.912;8.380;2024-02-28T09:39:57;21.20;44.80
28087;DHT22;15392;48.912;8.380;2024-02-28T09:42:48;21.30;45.00
28087;DHT22;15392;48.912;8.380;2024-02-28T09:45:38;21.30;44.80
28087;DHT22;15392;48.912;8.380;2024-02-28T09:48:27;21.40;45.20
28087;DHT22;15392;48.912;8.380;2024-02-28T09:51:17;21.50;45.10
28087;DHT22;15392;48.912;8.380;2024-02-28T09:54:04;21.60;46.00
28087;DHT22;15392;48.912;8.380;2024-02-28T09:56:54;21.80;45.70
28087;DHT22;15392;48.912;8.380;2024-02-28T10:00:01;21.90;45.40
28087;DHT22;15392;48.912;8.380;2024-02-28T10:02:56;22.10;44.90
28087;DHT22;15392;48.912;8.380;2024-02-28T10:05:44;22.20;44.90
28087;DHT22;15392;48.912;8.380;2024-02-28T10:08:33;22.20;44.70
28087;DHT22;15392;48.912;8.380;2024-02-28T10:11:26;22.20;44.50
28087;DHT22;15392;48.912;8.380;2024-02-28T10:14:18;22.20;43.70
28087;DHT22;15392;48.912;8.380;2024-02-28T10:17:05;22.20;43.80
28087;DHT22;15392;48.912;8.380;2024-02-28T10:19:58;22.10;44.10
28087;DHT22;15392;48.912;8.380;2024-02-28T10:22:52;22.00;43.50
28087;DHT22;15392;48.912;8.380;2024-02-28T10:25:47;22.10;44.10
28087;DHT22;15392;48.912;8.380;2024-02-28T10:28:39;22.20;44.40
28087;DHT22;15392;48.912;8.380;2024-02-28T10:31:28;22.30;44.80
28087;DHT22;15392;48.912;8.380;2024-02-28T10:34:20;22.40;44.70
28087;DHT22;15392;48.912;8.380;2024-02-28T10:37:06;22.30;44.40
28087;DHT22;15392;48.912;8.380;2024-02-28T10:39:54;22.30;44.00
28087;DHT22;15392;48.912;8.380;2024-02-28T10:42:42;22.10;43.50
28087;DHT22;15392;48.912;8.380;2024-02-28T10:45:33;22.10;43.70
28087;DHT22;15392;48.912;8.380;2024-02-28T10:48:21;22.00;44.10
28087;DHT22;15392;48.912;8.380;2024-02-28T10:51:09;21.90;44.10
28087;DHT22;15392;48.912;8.380;2024-02-28T10:54:08;21.70;43.60
28087;DHT22;15392;48.912;8.380;2024-02-28T10:57:04;21.50;43.50
28087;DHT22;15392;48.912;8.380;2024-02-28T10:59:53;21.20;43.10
28087;DHT22;15392;48.912;8.380;2024-02-28T11:02:40;21.00;43.70
28087;DHT22;15392;48.912;8.380;2024-02-28T11:05:39;20.80;44.00
28087;DHT22;15392;48.912;8.380;2024-02-28T11:08:28;20.70;43.90
28087;DHT22;15392;48.912;8.380;2024-02-28T11:11:16;20.70;44.90
28087;DHT22;15392;48.912;8.380;2024-02-28T11:14:02;20.90;45.30
28087;DHT22;15392;48.912;8.380;2024-02-28T11:16:58;20.90;45.50
28087;DHT22;15392;48.912;8.380;2024-02-28T11:19:45;21.00;45.30
28087;DHT22;15392;48.912;8.380;2024-02-28T11:22:36;21.10;45.20
28087;DHT22;15392;48.912;8.380;2024-02-28T11:25:22;21.10;44.70
28087;DHT22;15392;48.912;8.380;2024-02-28T11:28:11;21.10;44.40
28087;DHT22;15392;48.912;8.380;2024-02-28T11:30:57;20.90;44.20
28087;DHT22;15392;48.912;8.380;2024-02-28T11:33:43;20.80;44.10
28087;DHT22;15392;48.912;8.380;2024-02-28T11:36:29;20.60;44.00
28087;DHT22;15392;48.912;8.380;2024-02-28T11:39:18;20.40;43.90
28087;DHT22;15392;48.912;8.380;2024-02-28T11:42:15;20.20;43.70
28087;DHT22;15392;48.912;8.380;2024-02-28T11:45:12;20.00;43.60
28087;DHT22;15392;48.912;8.380;2024-02-28T11:47:58;19.90;44.20
28087;DHT22;15392;48.912;8.380;2024-02-28T11:50:46;19.60;44.30
28087;DHT22;15392;48.912;8.380;2024-02-28T11:53:33;19.50;44.50
28087;DHT22;15392;48.912;8.380;2024-02-28T11:56:39;19.40;44.50
28087;DHT22;15392;48.912;8.380;2024-02-28T11:59:26;19.20;43.80
28087;DHT22;15392;48.912;8.380;2024-02-28T12:02:15;19.00;44.50
28087;DHT22;15392;48.912;8.380;2024-02-28T12:05:07;18.90;44.50
28087;DHT22;15392;48.912;8.380;2024-02-28T12:07:55;18.70;44.40
28087;DHT22;15392;48.912;8.380;2024-02-28T12:10:41;18.60;44.20
28087;DHT22;15392;48.912;8.380;2024-02-28T12:13:27;18.40;44.90
28087;DHT22;15392;48.912;8.380;2024-02-28T12:16:13;18.30;45.20
28087;DHT22;15392;48.912;8.380;2024-02-28T12:18:59;18.30;45.60
28087;DHT22;15392;48.912;8.380;2024-02-28T12:21:45;18.40;45.90
28087;DHT22;15392;48.912;8.380;2024-02-28T12:24:31;18.40;46.10
28087;DHT22;15392;48.912;8.380;2024-02-28T12:27:18;18.50;46.10
28087;DHT22;15392;48.912;8.380;2024-02-28T12:30:04;18.50;45.70
28087;DHT22;15392;48.912;8.380;2024-02-28T12:32:52;18.50;45.50
28087;DHT22;15392;48.912;8.380;2024-02-28T12:35:38;18.50;45.40
28087;DHT22;15392;48.912;8.380;2024-02-28T12:38:24;18.50;45.60
28087;DHT22;15392;48.912;8.380;2024-02-28T12:41:10;18.50;45.70
28087;DHT22;15392;48.912;8.380;2024-02-28T12:43:57;18.50;45.60
28087;DHT22;15392;48.912;8.380;2024-02-28T12:46:43;18.60;45.60
28087;DHT22;15392;48.912;8.380;2024-02-28T12:49:29;18.60;45.40
28087;DHT22;15392;48.912;8.380;2024-02-28T12:52:15;18.50;45.20
28087;DHT22;15392;48.912;8.380;2024-02-28T12:55:01;18.50;45.20
28087;DHT22;15392;48.912;8.380;2024-02-28T12:57:48;18.40;45.00
28087;DHT22;15392;48.912;8.380;2024-02-28T13:00:34;18.40;44.70
28087;DHT22;15392;48.912;8.380;2024-02-28T13:03:32;18.30;44.90
28087;DHT22;15392;48.912;8.380;2024-02-28T13:06:18;18.20;43.50
28087;DHT22;15392;48.912;8.380;2024-02-28T13:09:05;18.10;44.80
28087;DHT22;15392;48.912;8.380;2024-02-28T13:11:57;18.00;45.00
28087;DHT22;15392;48.912;8.380;2024-02-28T13:14:43;18.00;45.20
28087;DHT22;15392;48.912;8.380;2024-02-28T13:17:29;17.90;45.20
28087;DHT22;15392;48.912;8.380;2024-02-28T13:20:15;17.80;45.30
28087;DHT22;15392;48.912;8.380;2024-02-28T13:23:03;17.70;45.40
28087;DHT22;15392;48.912;8.380;2024-02-28T13:25:49;17.70;45.40
28087;DHT22;15392;48.912;8.380;2024-02-28T13:28:36;17.70;45.50
28087;DHT22;15392;48.912;8.380;2024-02-28T13:31:22;17.60;45.50
28087;DHT22;15392;48.912;8.380;2024-02-28T13:34:08;17.50;45.50
28087;DHT22;15392;48.912;8.380;2024-02-28T13:36:55;17.50;45.60
28087;DHT22;15392;48.912;8.380;2024-02-28T13:39:41;17.40;45.60
28087;DHT22;15392;48.912;8.380;2024-02-28T13:42:27;17.40;45.60
28087;DHT22;15392;48.912;8.380;2024-02-28T13:45:13;17.30;45.70
28087;DHT22;15392;48.912;8.380;2024-02-28T13:47:59;17.20;45.70
28087;DHT22;15392;48.912;8.380;2024-02-28T13:50:46;17.10;45.60
28087;DHT22;15392;48.912;8.380;2024-02-28T13:53:32;17.00;45.80
28087;DHT22;15392;48.912;8.380;2024-02-28T13:56:18;17.00;45.90
28087;DHT22;15392;48.912;8.380;2024-02-28T13:59:04;16.90;45.90
28087;DHT22;15392;48.912;8.380;2024-02-28T14:01:52;16.90;45.80
28087;DHT22;15392;48.912;8.380;2024-02-28T14:04:38;16.80;45.90
28087;DHT22;15392;48.912;8.380;2024-02-28T14:07:24;16.80;45.90
28087;DHT22;15392;48.912;8.380;2024-02-28T14:10:10;16.70;46.00
28087;DHT22;15392;48.912;8.380;2024-02-28T14:12:57;16.70;46.00
28087;DHT22;15392;48.912;8.380;2024-02-28T14:15:44;16.70;46.10
28087;DHT22;15392;48.912;8.380;2024-02-28T14:18:31;16.60;46.10
28087;DHT22;15392;48.912;8.380;2024-02-28T14:21:17;16.60;46.20
28087;DHT22;15392;48.912;8.380;2024-02-28T14:24:05;16.50;46.20
28087;DHT22;15392;48.912;8.380;2024-02-28T14:26:51;16.60;46.00
28087;DHT22;15392;48.912;8.380;2024-02-28T14:29:37;16.50;46.10
28087;DHT22;15392;48.912;8.380;2024-02-28T14:32:23;16.50;46.20
28087;DHT22;15392;48.912;8.380;2024-02-28T14:35:09;16.50;46.20
28087;DHT22;15392;48.912;8.380;2024-02-28T14:37:56;16.40;46.20
28087;DHT22;15392;48.912;8.380;2024-02-28T14:40:42;16.40;46.30
28087;DHT22;15392;48.912;8.380;2024-02-28T14:43:28;16.40;46.20
28087;DHT22;15392;48.912;8.380;2024-02-28T14:46:15;16.30;46.30
28087;DHT22;15392;48.912;8.380;2024-02-28T14:49:10;16.30;46.30
28087;DHT22;15392;48.912;8.380;2024-02-28T14:51:56;16.30;46.30
28087;DHT22;15392;48.912;8.380;2024-02-28T14:54:42;16.30;46.40
28087;DHT22;15392;48.912;8.380;2024-02-28T14:57:30;16.20;46.30
28087;DHT22;15392;48.912;8.380;2024-02-28T15:00:17;16.20;46.40
28087;DHT22;15392;48.912;8.380;2024-02-28T15:03:05;16.20;46.30
28087;DHT22;15392;48.912;8.380;2024-02-28T15:05:51;16.10;46.20
28087;DHT22;15392;48.912;8.380;2024-02-28T15:08:37;16.10;46.00
28087;DHT22;15392;48.912;8.380;2024-02-28T15:11:23;16.10;46.10
28087;DHT22;15392;48.912;8.380;2024-02-28T15:14:09;16.10;46.00
28087;DHT22;15392;48.912;8.380;2024-02-28T15:16:55;16.00;46.10
28087;DHT22;15392;48.912;8.380;2024-02-28T15:19:41;16.00;46.20
28087;DHT22;15392;48.912;8.380;2024-02-28T15:22:27;16.00;46.20
28087;DHT22;15392;48.912;8.380;2024-02-28T15:25:14;16.00;46.50
28087;DHT22;15392;48.912;8.380;2024-02-28T15:28:02;16.00;46.40
28087;DHT22;15392;48.912;8.380;2024-02-28T15:30:48;16.00;46.50
28087;DHT22;15392;48.912;8.380;2024-02-28T15:33:34;16.00;46.40
28087;DHT22;15392;48.912;8.380;2024-02-28T15:36:20;15.90;46.40
28087;DHT22;15392;48.912;8.380;2024-02-28T15:39:06;15.90;46.40
28087;DHT22;15392;48.912;8.380;2024-02-28T15:41:52;15.90;46.40
28087;DHT22;15392;48.912;8.380;2024-02-28T15:44:38;15.90;46.40
28087;DHT22;15392;48.912;8.380;2024-02-28T15:47:25;15.90;46.30
28087;DHT22;15392;48.912;8.380;2024-02-28T15:50:11;15.90;46.40
28087;DHT22;15392;48.912;8.380;2024-02-28T15:52:57;15.80;46.40
28087;DHT22;15392;48.912;8.380;2024-02-28T15:55:43;15.80;46.10
28087;DHT22;15392;48.912;8.380;2024-02-28T15:58:29;15.80;45.90
28087;DHT22;15392;48.912;8.380;2024-02-28T16:01:15;15.70;45.60
28087;DHT22;15392;48.912;8.380;2024-02-28T16:04:02;15.80;46.20
28087;DHT22;15392;48.912;8.380;2024-02-28T16:06:48;15.70;46.20
28087;DHT22;15392;48.912;8.380;2024-02-28T16:09:35;15.70;46.40
28087;DHT22;15392;48.912;8.380;2024-02-28T16:12:24;15.70;46.50
28087;DHT22;15392;48.912;8.380;2024-02-28T16:15:12;15.70;46.50
28087;DHT22;15392;48.912;8.380;2024-02-28T16:17:58;15.60;46.50
28087;DHT22;15392;48.912;8.380;2024-02-28T16:20:44;15.60;46.50
28087;DHT22;15392;48.912;8.380;2024-02-28T16:23:30;15.60;46.60
28087;DHT22;15392;48.912;8.380;2024-02-28T16:26:16;15.50;46.60
28087;DHT22;15392;48.912;8.380;2024-02-28T16:29:02;15.50;46.70
28087;DHT22;15392;48.912;8.380;2024-02-28T16:31:48;15.50;46.70
28087;DHT22;15392;48.912;8.380;2024-02-28T16:34:36;15.50;46.70
28087;DHT22;15392;48.912;8.380;2024-02-28T16:37:22;15.50;46.70
28087;DHT22;15392;48.912;8.380;2024-02-28T16:40:08;15.40;46.50
28087;DHT22;15392;48.912;8.380;2024-02-28T16:42:54;15.40;46.60
28087;DHT22;15392;48.912;8.380;2024-02-28T16:45:40;15.40;46.60
28087;DHT22;15392;48.912;8.380;2024-02-28T16:48:26;15.30;46.60
28087;DHT22;15392;48.912;8.380;2024-02-28T16:51:12;15.30;46.70
28087;DHT22;15392;48.912;8.380;2024-02-28T16:53:58;15.30;46.50
28087;DHT22;15392;48.912;8.380;2024-02-28T16:56:45;15.30;46.50
28087;DHT22;15392;48.912;8.380;2024-02-28T16:59:31;15.20;46.50
28087;DHT22;15392;48.912;8.380;2024-02-28T17:02:17;15.20;46.50
28087;DHT22;15392;48.912;8.380;2024-02-28T17:05:03;15.10;46.30
28087;DHT22;15392;48.912;8.380;2024-02-28T17:07:49;15.00;46.40
28087;DHT22;15392;48.912;8.380;2024-02-28T17:10:35;15.00;46.40
28087;DHT22;15392;48.912;8.380;2024-02-28T17:13:22;14.90;46.40
28087;DHT22;15392;48.912;8.380;2024-02-28T17:16:08;14.80;46.40
28087;DHT22;15392;48.912;8.380;2024-02-28T17:18:54;14.70;46.40
28087;DHT22;15392;48.912;8.380;2024-02-28T17:21:41;14.70;46.40
28087;DHT22;15392;48.912;8.380;2024-02-28T17:24:27;14.60;46.30
28087;DHT22;15392;48.912;8.380;2024-02-28T17:27:13;14.50;46.30
28087;DHT22;15392;48.912;8.380;2024-02-28T17:30:00;14.40;46.40
28087;DHT22;15392;48.912;8.380;2024-02-28T17:32:46;14.40;46.50
28087;DHT22;15392;48.912;8.380;2024-02-28T17:35:34;14.30;46.50